createdAt,value
2023-07-28T00:01:53.596Z,100456.66
2023-07-28T00:04:20.164Z,100445.22
2023-07-28T00:06:46.656Z,100452.88
2023-07-28T00:09:13.187Z,100459.63
2023-07-28T00:11:39.692Z,100465.22
2023-07-28T00:14:06.287Z,100453.47
2023-07-28T00:16:32.961Z,100449.13
2023-07-28T00:18:59.756Z,100448.91
2023-07-28T00:21:27.426Z,100443.66
2023-07-28T00:23:54.705Z,100441.09
2023-07-28T00:26:21.429Z,100431.88
2023-07-28T00:28:47.967Z,100441.75
2023-07-28T00:31:14.581Z,100447.97
2023-07-28T00:33:41.282Z,100439.84
2023-07-28T00:36:07.794Z,100444.09
2023-07-28T00:38:34.353Z,100448.66
2023-07-28T00:41:00.873Z,100439.75
2023-07-28T00:43:27.354Z,100447.63
2023-07-28T00:45:54.617Z,100444.53
2023-07-28T00:48:21.657Z,100448.06
2023-07-28T00:50:49.744Z,100435.78
2023-07-28T00:53:17.058Z,100426.97
2023-07-28T00:55:43.839Z,100433.72
2023-07-28T00:58:10.598Z,100432.53
2023-07-28T01:00:37.543Z,100435.41
2023-07-28T01:03:04.885Z,100439.28
2023-07-28T01:05:49.410Z,100432.09
2023-07-28T01:08:54.658Z,100451.44
2023-07-28T01:11:22.513Z,100424.28
2023-07-28T01:13:48.961Z,100445.44
2023-07-28T01:16:15.901Z,100450.13
2023-07-28T01:18:42.489Z,100455.59
2023-07-28T01:21:18.478Z,100456.06
2023-07-28T01:24:16.314Z,100463.38
2023-07-28T01:26:43.056Z,100473.53
2023-07-28T01:29:10.329Z,100460.41
2023-07-28T01:31:36.970Z,100458.81
2023-07-28T01:34:03.534Z,100459.97
2023-07-28T01:36:30.075Z,100466.81
2023-07-28T01:38:56.605Z,100443.16
2023-07-28T01:41:23.101Z,100464.41
2023-07-28T01:43:49.626Z,100462.38
2023-07-28T01:46:16.147Z,100462.59
2023-07-28T01:48:42.651Z,100461.34
2023-07-28T01:51:09.117Z,100440.66
2023-07-28T01:53:35.594Z,100460.31
2023-07-28T01:56:02.305Z,100461.13
2023-07-28T01:58:28.841Z,100457.34
2023-07-28T02:00:55.457Z,100455.50
2023-07-28T02:03:21.969Z,100457.91
2023-07-28T02:05:48.487Z,100457.34
2023-07-28T02:08:14.997Z,100462.72
2023-07-28T02:10:41.455Z,100457.00
2023-07-28T02:13:08.169Z,100453.81
2023-07-28T02:15:34.661Z,100457.13
2023-07-28T02:18:01.163Z,100460.13
2023-07-28T02:20:27.686Z,100463.88
2023-07-28T02:22:54.225Z,100457.84
2023-07-28T02:25:21.196Z,100461.03
2023-07-28T02:27:47.879Z,100460.47
2023-07-28T02:30:14.588Z,100462.97
2023-07-28T02:32:41.162Z,100463.53
2023-07-28T02:35:08.068Z,100463.41
2023-07-28T02:37:34.630Z,100463.44
2023-07-28T02:40:01.140Z,100461.97
2023-07-28T02:42:27.850Z,100459.34
2023-07-28T02:44:54.375Z,100458.88
2023-07-28T02:47:20.981Z,100458.41
2023-07-28T02:49:47.534Z,100457.56
2023-07-28T02:52:14.458Z,100469.72
2023-07-28T02:54:40.941Z,100468.50
2023-07-28T02:57:07.520Z,100474.56
2023-07-28T02:59:34.105Z,100479.59
2023-07-28T03:02:00.784Z,100483.84
2023-07-28T03:04:27.403Z,100474.34
2023-07-28T03:06:54.080Z,100489.09
2023-07-28T03:09:20.540Z,100483.38
2023-07-28T03:11:47.039Z,100477.53
2023-07-28T03:14:14.049Z,100484.06
2023-07-28T03:16:42.305Z,100489.53
2023-07-28T03:19:08.853Z,100485.88
2023-07-28T03:21:37.392Z,100484.28
2023-07-28T03:24:05.614Z,100479.03
2023-07-28T03:26:32.189Z,100496.84
2023-07-28T03:28:58.738Z,100496.28
2023-07-28T03:31:25.322Z,100494.00
2023-07-28T03:33:51.849Z,100492.88
2023-07-28T03:36:20.460Z,100496.28
2023-07-28T03:38:47.700Z,100474.19
2023-07-28T03:41:14.575Z,100498.91
2023-07-28T03:43:41.520Z,100498.91
2023-07-28T03:46:08.092Z,100501.66
2023-07-28T03:48:34.630Z,100509.56
2023-07-28T03:51:01.196Z,100506.56
2023-07-28T03:53:27.820Z,100509.63
2023-07-28T03:55:58.878Z,100512.41
2023-07-28T03:58:26.279Z,100510.34
2023-07-28T04:00:55.837Z,100520.38
2023-07-28T04:03:23.009Z,100515.59
2023-07-28T04:05:50.008Z,100520.75
2023-07-28T04:08:16.555Z,100525.44
2023-07-28T04:10:43.074Z,100516.38
2023-07-28T04:13:09.848Z,100518.72
2023-07-28T04:15:36.367Z,100518.72
2023-07-28T04:18:02.919Z,100519.72
2023-07-28T04:20:29.537Z,100521.91
2023-07-28T04:22:56.199Z,100526.59
2023-07-28T04:25:22.806Z,100523.63
2023-07-28T04:27:49.351Z,100515.28
2023-07-28T04:30:15.941Z,100520.31
2023-07-28T04:32:42.520Z,100521.56
2023-07-28T04:35:09.150Z,100523.16
2023-07-28T04:37:35.588Z,100520.06
2023-07-28T04:40:02.118Z,100515.84
2023-07-28T04:42:28.735Z,100524.97
2023-07-28T04:44:55.356Z,100527.03
2023-07-28T04:47:21.876Z,100524.19
2023-07-28T04:49:48.395Z,100524.75
2023-07-28T04:52:14.871Z,100533.47
2023-07-28T04:54:41.561Z,100533.09
2023-07-28T04:57:08.092Z,100533.91
2023-07-28T04:59:34.608Z,100532.50
2023-07-28T05:02:01.076Z,100534.59
2023-07-28T05:04:27.723Z,100534.13
2023-07-28T05:06:54.325Z,100538.81
2023-07-28T05:09:20.858Z,100534.69
2023-07-28T05:11:48.926Z,100541.34
2023-07-28T05:14:15.588Z,100538.94
2023-07-28T05:16:42.349Z,100538.25
2023-07-28T05:19:08.951Z,100522.81
2023-07-28T05:21:35.728Z,100541.44
2023-07-28T05:24:02.512Z,100534.38
2023-07-28T05:26:29.004Z,100532.53
2023-07-28T05:28:55.692Z,100541.69
2023-07-28T05:31:22.198Z,100534.03
2023-07-28T05:33:48.921Z,100536.44
2023-07-28T05:36:15.368Z,100533.16
2023-07-28T05:38:41.854Z,100537.94
2023-07-28T05:41:08.554Z,100543.19
2023-07-28T05:43:35.052Z,100542.72
2023-07-28T05:46:02.392Z,100544.34
2023-07-28T05:48:28.927Z,100541.13
2023-07-28T05:50:55.729Z,100552.00
2023-07-28T05:53:22.641Z,100551.56
2023-07-28T05:55:49.964Z,100549.94
2023-07-28T05:58:16.619Z,100554.53
2023-07-28T06:00:43.308Z,100558.63
2023-07-28T06:03:11.698Z,100560.69
2023-07-28T06:05:40.198Z,100566.16
2023-07-28T06:08:07.049Z,100564.91
2023-07-28T06:10:33.881Z,100564.69
2023-07-28T06:13:00.398Z,100564.91
2023-07-28T06:15:27.183Z,100568.34
2023-07-28T06:17:53.774Z,100561.84
2023-07-28T06:20:20.361Z,100569.88
2023-07-28T06:22:46.879Z,100573.16
2023-07-28T06:25:13.422Z,100565.50
2023-07-28T06:27:39.948Z,100577.28
2023-07-28T06:30:07.102Z,100584.94
2023-07-28T06:32:33.711Z,100585.84
2023-07-28T06:35:00.302Z,100589.19
2023-07-28T06:37:26.861Z,100592.16
2023-07-28T06:39:53.379Z,100602.69
2023-07-28T06:42:24.781Z,100608.50
2023-07-28T06:44:52.369Z,100606.44
2023-07-28T06:47:19.521Z,100604.38
2023-07-28T06:49:46.092Z,100602.47
2023-07-28T06:52:12.628Z,100606.22
2023-07-28T06:54:39.772Z,100606.69
2023-07-28T06:57:07.603Z,100603.94
2023-07-28T06:59:34.371Z,100593.53
2023-07-28T07:02:01.007Z,100618.34
2023-07-28T07:04:27.764Z,100620.66
2023-07-28T07:06:54.292Z,100619.81
2023-07-28T07:09:21.123Z,100631.63
2023-07-28T07:11:47.798Z,100632.66
2023-07-28T07:14:15.637Z,100632.88
2023-07-28T07:16:42.306Z,100629.56
2023-07-28T07:19:09.920Z,100630.34
2023-07-28T07:21:37.010Z,100627.72
2023-07-28T07:24:04.982Z,100614.69
2023-07-28T07:26:32.554Z,100631.16
2023-07-28T07:28:59.192Z,100639.38
2023-07-28T07:31:25.807Z,100646.94
2023-07-28T07:33:52.513Z,100644.75
2023-07-28T07:36:20.329Z,100646.25
2023-07-28T07:38:47.399Z,100644.53
2023-07-28T07:41:20.452Z,100637.44
2023-07-28T07:43:48.022Z,100636.31
2023-07-28T07:46:15.546Z,100666.50
2023-07-28T07:48:42.035Z,100663.47
2023-07-28T07:51:09.534Z,100651.69
2023-07-28T07:53:37.453Z,100656.25
2023-07-28T07:56:05.290Z,100677.66
2023-07-28T07:58:32.099Z,100673.56
2023-07-28T08:00:58.608Z,100666.69
2023-07-28T08:03:25.285Z,100674.81
2023-07-28T08:05:52.460Z,100674.81
2023-07-28T08:08:20.731Z,100684.63
2023-07-28T08:10:48.275Z,100671.25
2023-07-28T08:13:15.638Z,100679.81
2023-07-28T08:15:44.351Z,100679.00
2023-07-28T08:18:12.444Z,100678.56
2023-07-28T08:20:39.070Z,100676.16
2023-07-28T08:23:05.587Z,100683.53
2023-07-28T08:25:32.085Z,100677.00
2023-07-28T08:27:58.629Z,100678.72
2023-07-28T08:30:25.396Z,100686.09
2023-07-28T08:32:51.885Z,100686.75
2023-07-28T08:35:19.042Z,100688.53
2023-07-28T08:37:45.606Z,100687.31
2023-07-28T08:40:13.222Z,100694.81
2023-07-28T08:42:40.893Z,100698.22
2023-07-28T08:45:09.349Z,100705.00
2023-07-28T08:47:37.800Z,100707.00
2023-07-28T08:50:06.991Z,100705.16
2023-07-28T08:52:33.896Z,100710.19
2023-07-28T08:55:00.441Z,100708.66
2023-07-28T08:57:26.982Z,100710.38
2023-07-28T08:59:54.289Z,100711.31
2023-07-28T09:02:21.333Z,100712.25
2023-07-28T09:04:49.202Z,100717.19
2023-07-28T09:07:16.131Z,100715.00
2023-07-28T09:09:43.172Z,100724.59
2023-07-28T09:12:09.808Z,100722.56
2023-07-28T09:14:40.315Z,100699.28
2023-07-28T09:17:10.778Z,100735.16
2023-07-28T09:19:53.908Z,100717.81
2023-07-28T09:22:21.521Z,100712.09
2023-07-28T09:24:49.056Z,100715.41
2023-07-28T09:27:26.658Z,100731.56
2023-07-28T09:29:58.815Z,100730.53
2023-07-28T09:32:31.631Z,100731.25
2023-07-28T09:35:12.224Z,100709.47
2023-07-28T09:37:41.034Z,100719.56
2023-07-28T09:40:13.056Z,100717.72
2023-07-28T09:42:56.457Z,100721.97
2023-07-28T09:45:37.053Z,100721.06
2023-07-28T09:48:08.435Z,100717.59
2023-07-28T09:50:39.085Z,100710.84
2023-07-28T09:53:07.053Z,100723.78
2023-07-28T09:55:35.562Z,100728.09
2023-07-28T09:58:05.314Z,100725.38
2023-07-28T10:00:31.974Z,100732.78
2023-07-28T10:02:59.051Z,100738.88
2023-07-28T10:05:25.738Z,100731.69
2023-07-28T10:07:52.883Z,100728.47
2023-07-28T10:10:20.003Z,100727.03
2023-07-28T10:12:51.280Z,100723.88
2023-07-28T10:15:19.576Z,100723.94
2023-07-28T10:17:50.882Z,100724.97
2023-07-28T10:20:37.895Z,100737.50
2023-07-28T10:23:05.195Z,100727.16
2023-07-28T10:25:35.476Z,100721.19
2023-07-28T10:28:03.453Z,100724.81
2023-07-28T10:30:30.070Z,100733.97
2023-07-28T10:32:56.730Z,100726.41
2023-07-28T10:35:26.332Z,100727.78
2023-07-28T10:37:54.686Z,100728.84
2023-07-28T10:40:27.447Z,100736.63
2023-07-28T10:42:54.222Z,100734.44
2023-07-28T10:45:21.616Z,100739.97
2023-07-28T10:47:48.777Z,100728.16
2023-07-28T10:50:16.185Z,100729.50
2023-07-28T10:52:43.743Z,100732.47
2023-07-28T10:55:23.705Z,100734.66
2023-07-28T10:57:51.437Z,100735.72
2023-07-28T11:00:19.577Z,100742.63
2023-07-28T11:02:48.930Z,100735.91
2023-07-28T11:05:26.277Z,100743.69
2023-07-28T11:07:54.868Z,100743.63
2023-07-28T11:10:21.779Z,100741.41
2023-07-28T11:12:50.482Z,100751.66
2023-07-28T11:15:17.755Z,100750.69
2023-07-28T11:17:47.151Z,100749.66
2023-07-28T11:20:19.349Z,100757.16
2023-07-28T11:22:47.606Z,100756.66
2023-07-28T11:25:14.325Z,100752.06
2023-07-28T11:27:41.154Z,100746.19
2023-07-28T11:30:11.232Z,100753.63
2023-07-28T11:32:38.649Z,100756.63
2023-07-28T11:35:09.943Z,100756.16
2023-07-28T11:37:37.937Z,100763.34
2023-07-28T11:40:07.832Z,100763.50
2023-07-28T11:42:36.329Z,100753.47
2023-07-28T11:45:07.259Z,100766.63
2023-07-28T11:47:33.886Z,100766.03
2023-07-28T11:50:01.838Z,100728.16
2023-07-28T11:52:32.745Z,100762.81
2023-07-28T11:55:04.171Z,100767.94
2023-07-28T11:57:34.023Z,100769.09
2023-07-28T12:00:01.016Z,100774.69
2023-07-28T12:02:29.009Z,100776.84
2023-07-28T12:07:35.027Z,100769.97
2023-07-28T12:10:07.561Z,100771.88
2023-07-28T12:20:51.535Z,100782.25
2023-07-28T12:25:51.446Z,100770.06
2023-07-28T12:28:20.194Z,100781.28
2023-07-28T12:30:50.038Z,100785.59
2023-07-28T12:48:20.427Z,100777.97
2023-07-28T12:50:47.815Z,100782.69
2023-07-28T12:53:17.779Z,100780.72
2023-07-28T13:03:14.632Z,100780.97
2023-07-28T13:05:44.558Z,100788.81
2023-07-28T13:08:11.418Z,100794.44
2023-07-28T13:15:39.247Z,100774.94
2023-07-28T13:18:05.938Z,100781.34
2023-07-28T13:20:32.469Z,100785.66
2023-07-28T13:22:58.964Z,100793.19
2023-07-28T13:25:25.418Z,100788.75
2023-07-28T13:27:52.289Z,100795.97
2023-07-28T13:30:18.937Z,100787.72
2023-07-28T13:32:45.513Z,100790.69
2023-07-28T13:35:12.074Z,100788.94
2023-07-28T13:37:38.495Z,100791.78
2023-07-28T13:40:07.098Z,100802.00
2023-07-28T13:42:35.145Z,100798.28
2023-07-28T13:45:01.647Z,100796.59
2023-07-28T13:47:28.239Z,100786.13
2023-07-28T13:49:54.925Z,100793.38
2023-07-28T13:52:22.541Z,100784.94
2023-07-28T13:57:19.711Z,100793.75
2023-07-28T13:59:46.308Z,100786.69
2023-07-28T14:02:12.955Z,100782.00
2023-07-28T14:04:39.539Z,100777.94
2023-07-28T14:07:06.134Z,100775.81
2023-07-28T14:09:32.690Z,100768.03
2023-07-28T14:11:59.150Z,100766.56
2023-07-28T14:14:25.632Z,100776.88
2023-07-28T14:16:52.123Z,100769.88
2023-07-28T14:19:18.973Z,100770.19
2023-07-28T14:21:45.530Z,100778.13
2023-07-28T14:24:12.233Z,100777.69
2023-07-28T14:26:39.819Z,100773.41
2023-07-28T14:29:06.976Z,100759.31
2023-07-28T14:31:33.620Z,100779.84
2023-07-28T14:34:00.144Z,100784.06
2023-07-28T14:36:26.636Z,100786.75
2023-07-28T14:38:53.263Z,100780.03
2023-07-28T14:41:20.357Z,100784.56
2023-07-28T14:43:46.952Z,100785.63
2023-07-28T14:46:13.449Z,100787.19
2023-07-28T14:48:39.958Z,100791.59
2023-07-28T14:51:06.510Z,100791.16
2023-07-28T14:53:37.849Z,100791.00
2023-07-28T14:56:05.701Z,100789.72
2023-07-28T14:58:32.669Z,100788.00
2023-07-28T15:01:00.975Z,100789.09
2023-07-28T15:03:32.040Z,100794.06
2023-07-28T15:05:59.682Z,100784.25
2023-07-28T15:08:26.403Z,100788.91
2023-07-28T15:10:52.873Z,100785.88
2023-07-28T15:13:19.857Z,100787.84
2023-07-28T15:15:46.657Z,100797.59
2023-07-28T15:18:13.909Z,100783.25
2023-07-28T15:20:41.532Z,100804.94
2023-07-28T15:23:08.102Z,100796.03
2023-07-28T15:25:34.670Z,100797.63
2023-07-28T15:28:01.208Z,100783.28
2023-07-28T15:30:28.004Z,100784.38
2023-07-28T15:32:54.543Z,100780.91
2023-07-28T15:35:21.086Z,100785.94
2023-07-28T15:37:47.608Z,100782.69
2023-07-28T15:40:14.262Z,100784.81
2023-07-28T15:42:44.421Z,100781.53
2023-07-28T15:45:11.993Z,100788.47
2023-07-28T15:47:38.476Z,100782.63
2023-07-28T15:50:05.421Z,100778.34
2023-07-28T15:52:32.837Z,100774.13
2023-07-28T15:54:59.627Z,100779.16
2023-07-28T15:57:26.309Z,100784.03
2023-07-28T15:59:52.880Z,100779.81
2023-07-28T16:02:19.557Z,100778.84
2023-07-28T16:04:46.128Z,100784.09
2023-07-28T16:07:12.756Z,100775.53
2023-07-28T16:09:39.260Z,100779.31
2023-07-28T16:12:06.272Z,100765.28
2023-07-28T16:14:32.817Z,100797.81
2023-07-28T16:16:59.299Z,100791.97
2023-07-28T16:19:26.516Z,100781.94
2023-07-28T16:21:55.002Z,100789.56
2023-07-28T16:24:21.614Z,100787.97
2023-07-28T16:26:48.135Z,100795.84
2023-07-28T16:29:14.687Z,100788.66
2023-07-28T16:31:41.245Z,100788.22
2023-07-28T16:34:07.765Z,100782.81
2023-07-28T16:36:34.228Z,100777.34
2023-07-28T16:39:00.759Z,100779.97
2023-07-28T16:41:27.329Z,100777.44
2023-07-28T16:43:53.976Z,100790.97
2023-07-28T16:46:20.630Z,100741.69
2023-07-28T16:48:47.433Z,100788.34
2023-07-28T16:51:13.914Z,100798.38
2023-07-28T16:53:40.472Z,100785.50
2023-07-28T16:56:07.683Z,100791.09
2023-07-28T16:58:34.237Z,100781.28
2023-07-28T17:01:00.753Z,100788.03
2023-07-28T17:03:27.472Z,100786.97
2023-07-28T17:05:54.186Z,100784.19
2023-07-28T17:08:20.687Z,100790.34
2023-07-28T17:10:47.589Z,100796.63
2023-07-28T17:13:14.089Z,100795.66
2023-07-28T17:15:41.400Z,100796.16
2023-07-28T17:18:09.513Z,100802.50
2023-07-28T17:20:36.188Z,100788.06
2023-07-28T17:23:03.068Z,100796.38
2023-07-28T17:25:29.641Z,100791.38
2023-07-28T17:27:56.253Z,100789.22
2023-07-28T17:30:22.800Z,100789.25
2023-07-28T17:32:49.377Z,100785.09
2023-07-28T17:35:16.112Z,100789.88
2023-07-28T17:37:42.607Z,100785.50
2023-07-28T17:40:09.763Z,100789.84
2023-07-28T17:42:36.835Z,100778.41
2023-07-28T17:45:07.504Z,100777.34
2023-07-28T17:47:35.442Z,100767.50
2023-07-28T17:50:02.188Z,100777.09
2023-07-28T17:52:28.817Z,100771.81
2023-07-28T17:54:55.600Z,100762.78
2023-07-28T17:57:23.019Z,100773.75
2023-07-28T17:59:49.526Z,100769.97
2023-07-28T18:02:16.072Z,100770.06
2023-07-28T18:04:42.677Z,100776.22
2023-07-28T18:07:09.814Z,100767.34
2023-07-28T18:09:36.333Z,100768.03
2023-07-28T18:12:02.833Z,100769.66
2023-07-28T18:14:29.297Z,100765.81
2023-07-28T18:16:55.836Z,100770.06
2023-07-28T18:19:22.366Z,100774.31
2023-07-28T18:21:49.101Z,100775.09
2023-07-28T18:24:17.995Z,100780.22
2023-07-28T18:26:44.541Z,100770.91
2023-07-28T18:29:11.872Z,100772.84
2023-07-28T18:31:38.562Z,100772.41
2023-07-28T18:34:05.400Z,100775.13
2023-07-28T18:36:31.968Z,100777.00
2023-07-28T18:38:58.607Z,100777.31
2023-07-28T18:41:25.140Z,100791.41
2023-07-28T18:43:51.710Z,100786.84
2023-07-28T18:46:18.889Z,100786.13
2023-07-28T18:48:45.517Z,100785.59
2023-07-28T18:51:13.679Z,100784.41
2023-07-28T18:53:41.499Z,100793.59
2023-07-28T18:56:08.798Z,100788.47
2023-07-28T18:58:35.450Z,100789.44
2023-07-28T19:01:01.958Z,100759.31
2023-07-28T19:03:30.215Z,100786.91
2023-07-28T19:05:57.050Z,100778.69
2023-07-28T19:08:23.852Z,100789.84
2023-07-28T19:10:50.436Z,100788.13
2023-07-28T19:13:17.676Z,100793.09
2023-07-28T19:15:46.640Z,100793.88
2023-07-28T19:18:14.268Z,100793.69
2023-07-28T19:20:40.861Z,100795.63
2023-07-28T19:23:08.290Z,100792.44
2023-07-28T19:25:35.050Z,100790.03
2023-07-28T19:28:02.327Z,100793.88
2023-07-28T19:30:29.065Z,100791.03
2023-07-28T19:32:55.564Z,100794.72
2023-07-28T19:35:22.175Z,100790.16
2023-07-28T19:37:48.625Z,100780.78
2023-07-28T19:40:16.031Z,100792.91
2023-07-28T19:42:42.560Z,100796.63
2023-07-28T19:45:09.431Z,100790.22
2023-07-28T19:47:38.152Z,100796.88
2023-07-28T19:50:13.781Z,100797.69
2023-07-28T19:52:41.668Z,100796.91
2023-07-28T19:55:08.837Z,100798.97
2023-07-28T19:57:35.416Z,100800.09
2023-07-28T20:00:01.941Z,100801.50
2023-07-28T20:02:28.537Z,100799.81
2023-07-28T20:04:55.226Z,100804.25
2023-07-28T20:07:24.257Z,100805.09
2023-07-28T20:09:50.828Z,100807.38
2023-07-28T20:12:17.350Z,100799.81
2023-07-28T20:14:43.993Z,100808.41
2023-07-28T20:17:10.469Z,100801.06
2023-07-28T20:19:36.964Z,100808.19
2023-07-28T20:22:03.761Z,100813.13
2023-07-28T20:24:31.756Z,100810.13
2023-07-28T20:26:58.231Z,100814.72
2023-07-28T20:29:24.775Z,100804.50
2023-07-28T20:31:51.379Z,100800.50
2023-07-28T20:34:18.106Z,100807.59
2023-07-28T20:36:44.662Z,100801.88
2023-07-28T20:39:11.143Z,100803.03
2023-07-28T20:41:37.621Z,100803.84
2023-07-28T20:44:04.268Z,100802.00
2023-07-28T20:46:31.664Z,100803.50
2023-07-28T20:48:58.276Z,100773.84
2023-07-28T20:51:25.017Z,100798.13
2023-07-28T20:53:51.829Z,100797.00
2023-07-28T20:56:18.361Z,100795.03
2023-07-28T20:58:44.890Z,100792.50
2023-07-28T21:01:11.372Z,100792.84
2023-07-28T21:03:38.028Z,100797.31
2023-07-28T21:06:04.647Z,100795.81
2023-07-28T21:08:31.074Z,100801.59
2023-07-28T21:10:58.491Z,100797.56
2023-07-28T21:13:24.959Z,100789.88
2023-07-28T21:15:51.592Z,100799.06
2023-07-28T21:18:18.508Z,100793.09
2023-07-28T21:20:47.059Z,100788.06
2023-07-28T21:23:13.773Z,100789.09
2023-07-28T21:25:41.380Z,100790.81
2023-07-28T21:28:08.430Z,100793.31
2023-07-28T21:30:35.394Z,100783.56
2023-07-28T21:33:04.144Z,100784.72
2023-07-28T21:35:31.456Z,100790.09
2023-07-28T21:37:58.648Z,100788.97
2023-07-28T21:40:25.388Z,100795.81
2023-07-28T21:42:52.609Z,100794.31
2023-07-28T21:45:19.891Z,100788.28
2023-07-28T21:47:47.714Z,100793.63
2023-07-28T21:50:14.718Z,100795.03
2023-07-28T21:52:44.363Z,100777.25
2023-07-28T21:55:14.846Z,100788.47
2023-07-28T21:57:46.823Z,100779.41
2023-07-28T22:00:16.712Z,100769.78
2023-07-28T22:02:43.676Z,100784.34
2023-07-28T22:05:11.784Z,100786.63
2023-07-28T22:07:39.221Z,100775.75
2023-07-28T22:10:06.561Z,100782.97
2023-07-28T22:12:33.654Z,100780.78
2023-07-28T22:15:00.205Z,100777.91
2023-07-28T22:17:26.794Z,100784.34
2023-07-28T22:19:53.694Z,100782.84
2023-07-28T22:22:20.288Z,100779.72
2023-07-28T22:24:46.837Z,100776.03
2023-07-28T22:27:13.345Z,100781.84
2023-07-28T22:29:39.840Z,100778.84
2023-07-28T22:32:07.526Z,100770.38
2023-07-28T22:34:34.042Z,100778.25
2023-07-28T22:37:00.577Z,100772.44
2023-07-28T22:39:27.170Z,100773.44
2023-07-28T22:41:54.343Z,100777.22
2023-07-28T22:44:20.938Z,100768.91
2023-07-28T22:46:47.454Z,100773.88
2023-07-28T22:49:13.953Z,100776.63
2023-07-28T22:51:40.538Z,100764.22
2023-07-28T22:54:07.003Z,100770.22
2023-07-28T22:56:33.775Z,100776.34
2023-07-28T22:59:00.540Z,100775.75
2023-07-28T23:01:27.076Z,100776.31
2023-07-28T23:03:53.799Z,100772.84
2023-07-28T23:06:20.242Z,100766.66
2023-07-28T23:08:46.753Z,100764.69
2023-07-28T23:11:13.256Z,100760.25
2023-07-28T23:13:39.759Z,100754.75
2023-07-28T23:16:06.268Z,100764.34
2023-07-28T23:18:32.707Z,100771.50
2023-07-28T23:20:59.170Z,100765.22
2023-07-28T23:23:25.798Z,100764.03
2023-07-28T23:25:52.265Z,100765.31
2023-07-28T23:28:18.880Z,100775.59
2023-07-28T23:30:46.043Z,100764.94
2023-07-28T23:33:12.617Z,100770.78
2023-07-28T23:35:39.753Z,100769.38
2023-07-28T23:38:06.210Z,100767.78
2023-07-28T23:40:32.649Z,100767.34
2023-07-28T23:42:59.179Z,100769.16
2023-07-28T23:45:25.915Z,100772.59
2023-07-28T23:47:52.558Z,100767.34
2023-07-28T23:50:19.158Z,100769.97
2023-07-28T23:52:45.674Z,100764.94
2023-07-28T23:55:12.154Z,100760.03
2023-07-28T23:57:39.389Z,100759.47
